Time,TemperatureF,DewpointF,PressureIn,WindDirection,WindDirectionDegrees,WindSpeedMPH,WindSpeedGustMPH,Humidity,HourlyPrecipIn,Conditions,Clouds,dailyrainin,SoftwareType,DateUTC
2013-07-03 00:00:00,60.1,52.1,29.06,West,270,4.6,4.6,75,0.00,CLR,OVC,0.00,WeatherDisplay:10.37,2013-07-03 07:00:00,
2013-07-03 00:05:00,59.9,52.0,29.06,South,180,2.3,2.3,75,0.00,CLR,OVC,0.00,WeatherDisplay:10.37,2013-07-03 07:05:00,
2013-07-03 00:11:00,59.7,52.1,29.06,WSW,248,2.3,2.3,76,0.00,CLR,OVC,0.00,WeatherDisplay:10.37,2013-07-03 07:11:00,
2013-07-03 00:16:00,59.5,52.0,29.06,WSW,248,3.5,3.5,76,0.00,CLR,OVC,0.00,WeatherDisplay:10.37,2013-07-03 07:16:00,
2013-07-03 00:17:00,59.5,52.0,29.06,WSW,248,4.6,4.6,76,0.00,CLR,OVC,0.00,WeatherDisplay:10.37,2013-07-03 07:17:00,
2013-07-03 00:22:00,59.4,51.8,29.06,WSW,248,3.5,3.5,76,0.00,CLR,OVC,0.00,WeatherDisplay:10.37,2013-07-03 07:22:00,
2013-07-03 00:27:00,59.4,51.8,29.05,SW,225,2.3,2.3,76,0.00,CLR,OVC,0.00,WeatherDisplay:10.37,2013-07-03 07:27:00,
2013-07-03 00:33:00,59.2,52.3,29.05,West,270,3.6,3.6,78,0.00,CLR,OVC,0.00,WeatherDisplay:10.37,2013-07-03 07:33:00,
2013-07-03 00:38:00,59.2,52.0,29.06,NNW,338,2.3,2.3,77,0.00,CLR,OVC,0.00,WeatherDisplay:10.37,2013-07-03 07:38:00,
2013-07-03 00:43:00,59.2,51.6,29.06,WSW,248,2.3,2.3,76,0.00,CLR,OVC,0.00,WeatherDisplay:10.37,2013-07-03 07:43:00,
2013-07-03 00:48:00,59.0,51.8,29.06,NNE,22,2.3,2.3,77,0.00,CLR,OVC,0.00,WeatherDisplay:10.37,2013-07-03 07:48:00,
2013-07-03 00:50:00,59.0,51.8,29.06,South,180,1.6,1.6,77,0.00,CLR,OVC,0.00,WeatherDisplay:10.37,2013-07-03 07:50:00,
2013-07-03 00:55:00,58.8,52.0,29.06,SE,135,5.4,5.4,78,0.00,CLR,OVC,0.00,WeatherDisplay:10.37,2013-07-03 07:55:00,
2013-07-03 01:01:00,58.6,51.8,29.06,North,0,2.3,2.3,78,0.00,CLR,OVC,0.00,WeatherDisplay:10.37,2013-07-03 08:01:00,
2013-07-03 01:06:00,58.5,51.6,29.06,North,0,2.9,2.9,78,0.00,CLR,OVC,0.00,WeatherDisplay:10.37,2013-07-03 08:06:00,
2013-07-03 01:08:00,58.3,51.8,29.06,SSW,202,3.5,3.5,79,0.00,CLR,OVC,0.00,WeatherDisplay:10.37,2013-07-03 08:08:00,
2013-07-03 01:09:00,58.3,51.8,29.06,SW,225,3.5,3.5,79,0.00,CLR,OVC,0.00,WeatherDisplay:10.37,2013-07-03 08:09:00,
2013-07-03 01:14:00,58.1,51.3,29.06,WSW,248,2.3,2.3,78,0.00,CLR,OVC,0.00,WeatherDisplay:10.37,2013-07-03 08:14:00,
2013-07-03 01:19:00,57.9,51.1,29.07,SSE,158,1.2,1.2,78,0.00,CLR,OVC,0.00,WeatherDisplay:10.37,2013-07-03 08:19:00,
2013-07-03 01:24:00,57.9,51.4,29.07,SW,225,2.3,2.3,79,0.00,CLR,OVC,0.00,WeatherDisplay:10.37,2013-07-03 08:24:00,
2013-07-03 01:29:00,57.7,51.3,29.07,SSW,202,1.2,1.2,79,0.00,CLR,OVC,0.00,WeatherDisplay:10.37,2013-07-03 08:29:00,
2013-07-03 01:34:00,57.6,51.1,29.07,NE,45,2.3,2.3,79,0.00,CLR,OVC,0.00,WeatherDisplay:10.37,2013-07-03 08:34:00,
2013-07-03 01:39:00,57.4,50.9,29.07,South,180,1.2,0.0,79,0.00,CLR,OVC,0.00,WeatherDisplay:10.37,2013-07-03 08:39:00,
2013-07-03 01:44:00,57.2,51.1,29.07,WSW,248,2.3,2.3,80,0.00,CLR,OVC,0.00,WeatherDisplay:10.37,2013-07-03 08:44:00,
2013-07-03 01:45:00,57.2,51.1,29.07,SW,225,2.3,2.3,80,0.00,CLR,OVC,0.00,WeatherDisplay:10.37,2013-07-03 08:45:00,
2013-07-03 01:50:00,57.0,50.9,29.07,SSW,202,3.5,3.5,80,0.00,CLR,OVC,0.00,WeatherDisplay:10.37,2013-07-03 08:50:00,
2013-07-03 01:55:00,56.8,51.1,29.07,West,270,2.3,2.3,81,0.00,CLR,OVC,0.00,WeatherDisplay:10.37,2013-07-03 08:55:00,
2013-07-03 01:56:00,56.8,50.7,29.07,South,180,2.3,2.3,80,0.00,CLR,OVC,0.00,WeatherDisplay:10.37,2013-07-03 08:56:00,
2013-07-03 01:57:00,56.8,51.1,29.07,South,180,2.3,2.3,81,0.00,CLR,OVC,0.00,WeatherDisplay:10.37,2013-07-03 08:57:00,
2013-07-03 02:02:00,56.7,50.9,29.07,South,180,2.3,2.3,81,0.00,CLR,OVC,0.00,WeatherDisplay:10.37,2013-07-03 09:02:00,
2013-07-03 02:07:00,56.5,50.7,29.06,WSW,248,2.3,2.3,81,0.00,CLR,OVC,0.00,WeatherDisplay:10.37,2013-07-03 09:07:00,
2013-07-03 02:12:00,56.3,50.5,29.06,SW,225,2.3,2.3,81,0.00,CLR,OVC,0.00,WeatherDisplay:10.37,2013-07-03 09:12:00,
2013-07-03 02:17:00,56.1,50.4,29.07,SSE,158,2.3,2.3,81,0.00,CLR,OVC,0.00,WeatherDisplay:10.37,2013-07-03 09:17:00,
2013-07-03 02:23:00,56.1,50.7,29.07,SSW,202,2.3,2.3,82,0.00,CLR,OVC,0.00,WeatherDisplay:10.37,2013-07-03 09:23:00,
2013-07-03 02:28:00,55.9,50.2,29.07,SW,225,1.8,1.8,81,0.00,CLR,OVC,0.00,WeatherDisplay:10.37,2013-07-03 09:28:00,
2013-07-03 02:33:00,55.8,50.3,29.07,WSW,248,3.5,3.5,82,0.00,CLR,OVC,0.00,WeatherDisplay:10.37,2013-07-03 09:33:00,
2013-07-03 02:38:00,55.8,50.3,29.07,SW,225,3.5,3.5,82,0.00,CLR,OVC,0.00,WeatherDisplay:10.37,2013-07-03 09:38:00,
2013-07-03 02:41:00,55.8,50.3,29.07,SSW,202,2.3,2.3,82,0.00,CLR,OVC,0.00,WeatherDisplay:10.37,2013-07-03 09:41:00,
2013-07-03 02:46:00,55.6,50.2,29.07,SSW,202,2.6,2.6,82,0.00,CLR,OVC,0.00,WeatherDisplay:10.37,2013-07-03 09:46:00,
2013-07-03 02:50:00,55.6,50.5,29.06,NNE,22,4.6,4.6,83,0.00,CLR,OVC,0.00,WeatherDisplay:10.37,2013-07-03 09:50:00,
2013-07-03 02:52:00,55.6,50.5,29.07,WSW,248,4.6,4.6,83,0.00,CLR,OVC,0.00,WeatherDisplay:10.37,2013-07-03 09:52:00,
2013-07-03 02:58:00,55.4,50.0,29.07,NW,315,2.4,2.4,82,0.00,CLR,OVC,0.00,WeatherDisplay:10.37,2013-07-03 09:58:00,
2013-07-03 03:03:00,55.4,50.0,29.07,SW,225,2.3,2.3,82,0.00,CLR,OVC,0.00,WeatherDisplay:10.37,2013-07-03 10:03:00,
2013-07-03 03:05:00,55.2,49.8,29.07,WSW,248,2.4,2.4,82,0.00,CLR,OVC,0.00,WeatherDisplay:10.37,2013-07-03 10:05:00,
2013-07-03 03:10:00,55.2,49.8,29.07,SSE,158,2.3,2.3,82,0.00,CLR,OVC,0.00,WeatherDisplay:10.37,2013-07-03 10:10:00,
2013-07-03 03:15:00,55.0,49.6,29.07,SSE,158,2.3,2.3,82,0.00,CLR,OVC,0.00,WeatherDisplay:10.37,2013-07-03 10:15:00,
2013-07-03 03:20:00,55.0,49.6,29.08,South,180,2.3,2.3,82,0.00,CLR,OVC,0.00,WeatherDisplay:10.37,2013-07-03 10:20:00,
2013-07-03 03:25:00,55.0,49.6,29.08,SSE,158,2.3,2.3,82,0.00,CLR,OVC,0.00,WeatherDisplay:10.37,2013-07-03 10:25:00,
2013-07-03 03:31:00,54.9,49.5,29.08,South,180,2.3,2.3,82,0.00,CLR,OVC,0.00,WeatherDisplay:10.37,2013-07-03 10:31:00,
2013-07-03 03:36:00,54.7,49.6,29.08,West,270,2.3,3.3,83,0.00,CLR,OVC,0.00,WeatherDisplay:10.37,2013-07-03 10:36:00,
2013-07-03 03:43:00,54.5,49.4,29.08,SW,225,2.3,2.3,83,0.00,CLR,OVC,0.00,WeatherDisplay:10.37,2013-07-03 10:43:00,
2013-07-03 03:49:00,54.3,49.3,29.08,South,180,2.3,2.3,83,0.00,CLR,OVC,0.00,WeatherDisplay:10.37,2013-07-03 10:49:00,
2013-07-03 03:50:00,54.3,49.3,29.08,SW,225,2.3,2.3,83,0.00,CLR,OVC,0.00,WeatherDisplay:10.37,2013-07-03 10:50:00,
2013-07-03 03:55:00,54.3,49.6,29.08,WSW,248,2.3,2.3,84,0.00,CLR,OVC,0.00,WeatherDisplay:10.37,2013-07-03 10:55:00,
2013-07-03 03:57:00,54.3,49.6,29.08,SW,225,2.3,2.3,84,0.00,CLR,OVC,0.00,WeatherDisplay:10.37,2013-07-03 10:57:00,
2013-07-03 04:03:00,54.3,49.6,29.09,SSE,158,2.4,2.4,84,0.00,CLR,OVC,0.00,WeatherDisplay:10.37,2013-07-03 11:03:00,
2013-07-03 04:09:00,54.3,49.9,29.09,NW,315,3.3,3.3,85,0.00,CLR,OVC,0.00,WeatherDisplay:10.37,2013-07-03 11:09:00,
2013-07-03 04:14:00,54.1,49.7,29.09,West,270,4.6,4.6,85,0.00,CLR,OVC,0.00,WeatherDisplay:10.37,2013-07-03 11:14:00,
2013-07-03 04:19:00,54.1,49.7,29.09,WSW,248,1.6,1.6,85,0.00,CLR,OVC,0.00,WeatherDisplay:10.37,2013-07-03 11:19:00,
2013-07-03 04:24:00,54.0,49.6,29.09,NW,315,2.3,2.3,85,0.00,CLR,OVC,0.00,WeatherDisplay:10.37,2013-07-03 11:24:00,
2013-07-03 04:25:00,54.0,49.6,29.09,West,270,1.2,1.2,85,0.00,CLR,OVC,0.00,WeatherDisplay:10.37,2013-07-03 11:25:00,
2013-07-03 04:30:00,53.8,49.4,29.09,South,180,2.3,2.3,85,0.00,CLR,OVC,0.00,WeatherDisplay:10.37,2013-07-03 11:30:00,
2013-07-03 04:35:00,53.6,49.5,29.09,WSW,248,2.6,2.6,86,0.00,CLR,OVC,0.00,WeatherDisplay:10.37,2013-07-03 11:35:00,
2013-07-03 04:41:00,53.6,49.5,29.09,SSE,158,3.5,3.5,86,0.00,CLR,OVC,0.00,WeatherDisplay:10.37,2013-07-03 11:41:00,
2013-07-03 04:45:00,53.6,49.5,29.09,SE,135,2.3,2.3,86,0.00,CLR,OVC,0.00,WeatherDisplay:10.37,2013-07-03 11:45:00,
2013-07-03 04:50:00,53.6,49.5,29.09,SW,225,3.5,3.5,86,0.00,CLR,OVC,0.00,WeatherDisplay:10.37,2013-07-03 11:50:00,
2013-07-03 04:55:00,53.4,49.6,29.09,WNW,292,2.3,2.3,87,0.00,CLR,OVC,0.00,WeatherDisplay:10.37,2013-07-03 11:55:00,
2013-07-03 04:59:00,53.4,49.3,29.09,WSW,248,2.3,2.3,86,0.00,CLR,OVC,0.00,WeatherDisplay:10.37,2013-07-03 11:59:00,
2013-07-03 05:02:00,53.2,49.2,29.10,SSW,202,2.3,2.3,86,0.00,CLR,OVC,0.00,WeatherDisplay:10.37,2013-07-03 12:02:00,
2013-07-03 05:07:00,53.2,49.2,29.10,SSE,158,2.3,2.3,86,0.00,CLR,OVC,0.00,WeatherDisplay:10.37,2013-07-03 12:07:00,
2013-07-03 05:13:00,53.2,49.5,29.10,WSW,248,4.6,4.6,87,0.00,CLR,OVC,0.00,WeatherDisplay:10.37,2013-07-03 12:13:00,
2013-07-03 05:14:00,53.2,49.5,29.10,SSW,202,4.6,4.6,87,0.00,CLR,OVC,0.00,WeatherDisplay:10.37,2013-07-03 12:14:00,
2013-07-03 05:16:00,53.2,49.2,29.10,SW,225,2.4,2.4,86,0.00,CLR,OVC,0.00,WeatherDisplay:10.37,2013-07-03 12:16:00,
2013-07-03 05:20:00,53.1,49.3,29.10,West,270,2.3,2.3,87,0.00,CLR,OVC,0.00,WeatherDisplay:10.37,2013-07-03 12:20:00,
2013-07-03 05:26:00,53.1,49.3,29.10,West,270,3.5,3.5,87,0.00,CLR,OVC,0.00,WeatherDisplay:10.37,2013-07-03 12:26:00,
2013-07-03 05:31:00,53.1,49.3,29.10,NNW,338,1.2,1.8,87,0.00,CLR,OVC,0.00,WeatherDisplay:10.37,2013-07-03 12:31:00,
2013-07-03 05:37:00,53.1,49.3,29.10,WSW,248,2.3,2.3,87,0.00,CLR,OVC,0.00,WeatherDisplay:10.37,2013-07-03 12:37:00,
2013-07-03 05:42:00,53.1,49.3,29.10,West,270,3.5,3.5,87,0.00,CLR,OVC,0.00,WeatherDisplay:10.37,2013-07-03 12:42:00,
2013-07-03 05:47:00,53.1,49.3,29.10,ENE,68,2.3,2.3,87,0.00,CLR,OVC,0.00,WeatherDisplay:10.37,2013-07-03 12:47:00,
2013-07-03 05:48:00,53.1,49.3,29.10,West,270,2.3,2.3,87,0.00,CLR,OVC,0.00,WeatherDisplay:10.37,2013-07-03 12:48:00,
2013-07-03 05:53:00,52.9,48.8,29.10,SW,225,0.5,0.5,86,0.00,CLR,OVC,0.00,WeatherDisplay:10.37,2013-07-03 12:53:00,
2013-07-03 05:58:00,53.1,49.3,29.10,WNW,292,2.3,2.3,87,0.00,CLR,OVC,0.00,WeatherDisplay:10.37,2013-07-03 12:58:00,
2013-07-03 06:03:00,53.1,49.0,29.10,South,180,0.0,1.2,86,0.00,CLR,OVC,0.00,WeatherDisplay:10.37,2013-07-03 13:03:00,
2013-07-03 06:08:00,53.1,49.3,29.10,West,270,3.5,3.5,87,0.00,CLR,OVC,0.00,WeatherDisplay:10.37,2013-07-03 13:08:00,
2013-07-03 06:13:00,53.1,49.0,29.10,WSW,248,2.3,2.3,86,0.00,CLR,OVC,0.00,WeatherDisplay:10.37,2013-07-03 13:13:00,
2013-07-03 06:19:00,53.1,49.0,29.10,South,180,1.2,1.2,86,0.00,CLR,OVC,0.00,WeatherDisplay:10.37,2013-07-03 13:19:00,
2013-07-03 06:25:00,53.1,49.0,29.10,WNW,292,2.3,0.0,86,0.00,CLR,OVC,0.00,WeatherDisplay:10.37,2013-07-03 13:25:00,
2013-07-03 06:26:00,53.1,49.0,29.10,East,90,2.3,2.3,86,0.00,CLR,OVC,0.00,WeatherDisplay:10.37,2013-07-03 13:26:00,
2013-07-03 06:31:00,53.1,49.0,29.11,West,270,2.3,2.3,86,0.00,CLR,OVC,0.00,WeatherDisplay:10.37,2013-07-03 13:31:00,
2013-07-03 06:36:00,53.2,49.2,29.10,West,270,1.8,1.8,86,0.00,CLR,OVC,0.00,WeatherDisplay:10.37,2013-07-03 13:36:00,
2013-07-03 06:37:00,53.2,49.2,29.10,West,270,2.3,2.3,86,0.00,CLR,OVC,0.00,WeatherDisplay:10.37,2013-07-03 13:37:00,
2013-07-03 06:42:00,53.2,49.2,29.10,SSW,202,1.2,1.2,86,0.00,CLR,OVC,0.00,WeatherDisplay:10.37,2013-07-03 13:42:00,
2013-07-03 06:47:00,53.4,49.3,29.10,NW,315,2.3,2.3,86,0.00,CLR,OVC,0.00,WeatherDisplay:10.37,2013-07-03 13:47:00,
2013-07-03 06:52:00,53.6,49.5,29.10,WSW,248,1.2,0.0,86,0.00,CLR,OVC,0.00,WeatherDisplay:10.37,2013-07-03 13:52:00,
2013-07-03 06:57:00,53.6,49.5,29.10,WSW,248,2.0,2.0,86,0.00,CLR,OVC,0.00,WeatherDisplay:10.37,2013-07-03 13:57:00,
2013-07-03 07:02:00,53.8,49.7,29.10,WSW,248,2.3,2.3,86,0.00,CLR,OVC,0.00,WeatherDisplay:10.37,2013-07-03 14:02:00,
2013-07-03 07:06:00,53.8,49.7,29.10,NNW,338,3.3,3.3,86,0.00,CLR,OVC,0.00,WeatherDisplay:10.37,2013-07-03 14:06:00,
2013-07-03 07:10:00,54.0,49.9,29.10,SW,225,1.4,1.4,86,0.00,CLR,OVC,0.00,WeatherDisplay:10.37,2013-07-03 14:10:00,
2013-07-03 07:15:00,54.1,50.0,29.10,WSW,248,2.3,2.3,86,0.00,CLR,OVC,0.00,WeatherDisplay:10.37,2013-07-03 14:15:00,
2013-07-03 07:18:00,54.1,50.0,29.10,WSW,248,2.3,2.3,86,0.00,CLR,OVC,0.00,WeatherDisplay:10.37,2013-07-03 14:18:00,
2013-07-03 07:24:00,54.3,49.9,29.11,SW,225,2.2,2.2,85,0.00,CLR,OVC,0.00,WeatherDisplay:10.37,2013-07-03 14:24:00,
2013-07-03 07:29:00,54.5,50.1,29.11,SSW,202,2.3,2.3,85,0.00,CLR,OVC,0.00,WeatherDisplay:10.37,2013-07-03 14:29:00,
2013-07-03 07:32:00,54.5,50.1,29.11,West,270,4.0,4.0,85,0.00,CLR,OVC,0.00,WeatherDisplay:10.37,2013-07-03 14:32:00,
2013-07-03 07:38:00,54.7,49.9,29.11,SSE,158,2.3,2.3,84,0.00,CLR,OVC,0.00,WeatherDisplay:10.37,2013-07-03 14:38:00,
2013-07-03 07:39:00,54.9,50.1,29.11,West,270,2.3,2.3,84,0.00,CLR,OVC,0.00,WeatherDisplay:10.37,2013-07-03 14:39:00,
2013-07-03 07:41:00,54.9,50.1,29.11,SW,225,1.2,1.2,84,0.00,CLR,OVC,0.00,WeatherDisplay:10.37,2013-07-03 14:41:00,
2013-07-03 07:46:00,55.4,50.6,29.11,WSW,248,2.3,2.3,84,0.00,CLR,OVC,0.00,WeatherDisplay:10.37,2013-07-03 14:46:00,
2013-07-03 07:53:00,58.6,53.5,29.11,SSE,158,2.3,2.3,83,0.00,CLR,OVC,0.00,WeatherDisplay:10.37,2013-07-03 14:53:00,
2013-07-03 07:58:00,61.2,54.2,29.11,WSW,248,2.3,2.3,78,0.00,CLR,OVC,0.00,WeatherDisplay:10.37,2013-07-03 14:58:00,
2013-07-03 07:59:00,61.5,53.9,29.11,NE,45,4.6,4.6,76,0.00,CLR,OVC,0.00,WeatherDisplay:10.37,2013-07-03 14:59:00,
2013-07-03 08:03:00,63.0,54.9,29.11,WSW,248,3.5,3.5,75,0.00,CLR,OVC,0.00,WeatherDisplay:10.37,2013-07-03 15:03:00,
2013-07-03 08:04:00,63.0,54.9,29.11,WSW,248,3.5,3.5,75,0.00,CLR,OVC,0.00,WeatherDisplay:10.37,2013-07-03 15:04:00,
2013-07-03 08:10:00,65.1,56.2,29.11,WSW,248,2.3,2.3,73,0.00,CLR,OVC,0.00,WeatherDisplay:10.37,2013-07-03 15:10:00,
2013-07-03 08:15:00,66.2,55.3,29.11,North,0,3.6,3.6,68,0.00,CLR,OVC,0.00,WeatherDisplay:10.37,2013-07-03 15:15:00,
2013-07-03 08:20:00,66.6,54.8,29.11,WSW,248,3.3,3.3,66,0.00,CLR,OVC,0.00,WeatherDisplay:10.37,2013-07-03 15:20:00,
2013-07-03 08:25:00,67.1,54.5,29.11,WSW,248,4.6,4.6,64,0.00,CLR,OVC,0.00,WeatherDisplay:10.37,2013-07-03 15:25:00,
2013-07-03 08:30:00,67.3,54.7,29.11,West,270,2.3,2.3,64,0.00,CLR,OVC,0.00,WeatherDisplay:10.37,2013-07-03 15:30:00,
2013-07-03 08:35:00,67.6,55.0,29.11,SW,225,2.3,2.3,64,0.00,CLR,OVC,0.00,WeatherDisplay:10.37,2013-07-03 15:35:00,
2013-07-03 08:40:00,68.7,55.6,29.11,SW,225,2.3,2.3,63,0.00,CLR,OVC,0.00,WeatherDisplay:10.37,2013-07-03 15:40:00,
2013-07-03 08:46:00,69.4,55.4,29.11,SW,225,2.3,2.3,61,0.00,CLR,OVC,0.00,WeatherDisplay:10.37,2013-07-03 15:46:00,
2013-07-03 08:51:00,70.5,56.0,29.11,SW,225,2.3,2.3,60,0.00,CLR,OVC,0.00,WeatherDisplay:10.37,2013-07-03 15:51:00,
2013-07-03 08:52:00,70.9,55.8,29.11,SW,225,2.3,2.3,59,0.00,CLR,OVC,0.00,WeatherDisplay:10.37,2013-07-03 15:52:00,
2013-07-03 08:57:00,71.8,56.7,29.10,West,270,3.5,3.5,59,0.00,CLR,OVC,0.00,WeatherDisplay:10.37,2013-07-03 15:57:00,
2013-07-03 09:02:00,72.7,56.6,29.11,WSW,248,2.4,2.4,57,0.00,CLR,OVC,0.00,WeatherDisplay:10.37,2013-07-03 16:02:00,
2013-07-03 09:07:00,72.7,55.1,29.10,WSW,248,4.0,4.0,54,0.00,CLR,OVC,0.00,WeatherDisplay:10.37,2013-07-03 16:07:00,
2013-07-03 09:12:00,72.0,55.4,29.10,SW,225,2.6,2.6,56,0.00,CLR,OVC,0.00,WeatherDisplay:10.37,2013-07-03 16:12:00,
2013-07-03 09:17:00,72.3,56.2,29.11,SSW,202,2.3,2.3,57,0.00,CLR,OVC,0.00,WeatherDisplay:10.37,2013-07-03 16:17:00,
2013-07-03 09:23:00,73.0,54.9,29.11,West,270,3.5,3.5,53,0.00,CLR,OVC,0.00,WeatherDisplay:10.37,2013-07-03 16:23:00,
2013-07-03 09:28:00,71.6,54.1,29.11,WSW,248,4.6,4.6,54,0.00,CLR,OVC,0.00,WeatherDisplay:10.37,2013-07-03 16:28:00,
2013-07-03 09:33:00,71.2,54.7,29.11,WSW,248,2.3,2.3,56,0.00,CLR,OVC,0.00,WeatherDisplay:10.37,2013-07-03 16:33:00,
2013-07-03 09:38:00,70.9,53.9,29.10,SW,225,5.4,5.4,55,0.00,CLR,OVC,0.00,WeatherDisplay:10.37,2013-07-03 16:38:00,
2013-07-03 09:43:00,70.0,53.6,29.11,WSW,248,4.6,4.6,56,0.00,CLR,OVC,0.00,WeatherDisplay:10.37,2013-07-03 16:43:00,
2013-07-03 09:49:00,70.2,53.7,29.11,WNW,292,3.5,3.5,56,0.00,CLR,OVC,0.00,WeatherDisplay:10.37,2013-07-03 16:49:00,
2013-07-03 09:54:00,70.9,55.4,29.11,NW,315,3.5,3.5,58,0.00,CLR,OVC,0.00,WeatherDisplay:10.37,2013-07-03 16:54:00,
2013-07-03 09:59:00,71.2,55.2,29.10,WSW,248,4.6,4.6,57,0.00,CLR,OVC,0.00,WeatherDisplay:10.37,2013-07-03 16:59:00,
2013-07-03 10:04:00,71.6,54.6,29.10,West,270,4.5,4.5,55,0.00,CLR,OVC,0.00,WeatherDisplay:10.37,2013-07-03 17:04:00,
2013-07-03 10:10:00,70.9,53.9,29.10,SW,225,5.8,5.8,55,0.00,CLR,OVC,0.00,WeatherDisplay:10.37,2013-07-03 17:10:00,
2013-07-03 10:16:00,71.2,53.7,29.10,North,0,4.7,4.7,54,0.00,CLR,OVC,0.00,WeatherDisplay:10.37,2013-07-03 17:16:00,
2013-07-03 10:21:00,70.9,54.4,29.10,West,270,4.6,4.6,56,0.00,CLR,OVC,0.00,WeatherDisplay:10.37,2013-07-03 17:21:00,
2013-07-03 10:26:00,71.2,54.2,29.10,WSW,248,3.6,3.6,55,0.00,CLR,OVC,0.00,WeatherDisplay:10.37,2013-07-03 17:26:00,
2013-07-03 10:31:00,71.4,54.9,29.10,NW,315,4.3,4.3,56,0.00,CLR,OVC,0.00,WeatherDisplay:10.37,2013-07-03 17:31:00,
2013-07-03 10:36:00,72.0,54.4,29.10,WSW,248,4.6,4.6,54,0.00,CLR,OVC,0.00,WeatherDisplay:10.37,2013-07-03 17:36:00,
2013-07-03 10:41:00,71.8,54.7,29.10,SSW,202,5.8,5.8,55,0.00,CLR,OVC,0.00,WeatherDisplay:10.37,2013-07-03 17:41:00,
2013-07-03 10:47:00,72.3,55.2,29.10,SW,225,4.3,4.3,55,0.00,CLR,OVC,0.00,WeatherDisplay:10.37,2013-07-03 17:47:00,
2013-07-03 10:52:00,72.1,55.1,29.10,WNW,292,2.3,2.3,55,0.00,CLR,OVC,0.00,WeatherDisplay:10.37,2013-07-03 17:52:00,
2013-07-03 10:57:00,72.5,55.4,29.10,SW,225,4.6,4.6,55,0.00,CLR,OVC,0.00,WeatherDisplay:10.37,2013-07-03 17:57:00,
2013-07-03 11:02:00,72.3,54.7,29.10,SW,225,4.6,4.6,54,0.00,CLR,OVC,0.00,WeatherDisplay:10.37,2013-07-03 18:02:00,
2013-07-03 11:07:00,72.0,55.4,29.10,SW,225,2.6,2.6,56,0.00,CLR,OVC,0.00,WeatherDisplay:10.37,2013-07-03 18:07:00,
2013-07-03 11:13:00,71.8,55.7,29.10,WNW,292,4.6,4.6,57,0.00,CLR,OVC,0.00,WeatherDisplay:10.37,2013-07-03 18:13:00,
2013-07-03 11:18:00,71.2,54.7,29.10,SW,225,4.6,4.6,56,0.00,CLR,OVC,0.00,WeatherDisplay:10.37,2013-07-03 18:18:00,
2013-07-03 11:23:00,71.1,54.6,29.10,SW,225,5.2,5.2,56,0.00,CLR,OVC,0.00,WeatherDisplay:10.37,2013-07-03 18:23:00,
2013-07-03 11:29:00,71.4,55.4,29.10,WSW,248,2.6,2.6,57,0.00,CLR,OVC,0.00,WeatherDisplay:10.37,2013-07-03 18:29:00,
2013-07-03 11:34:00,71.8,54.7,29.10,WSW,248,4.6,4.6,55,0.00,CLR,OVC,0.00,WeatherDisplay:10.37,2013-07-03 18:34:00,
2013-07-03 11:40:00,72.0,55.4,29.10,WSW,248,4.6,4.6,56,0.00,CLR,OVC,0.00,WeatherDisplay:10.37,2013-07-03 18:40:00,
2013-07-03 11:45:00,72.3,55.7,29.11,WSW,248,4.3,4.3,56,0.00,CLR,OVC,0.00,WeatherDisplay:10.37,2013-07-03 18:45:00,
2013-07-03 11:50:00,72.3,55.2,29.10,SW,225,5.8,5.8,55,0.00,CLR,OVC,0.00,WeatherDisplay:10.37,2013-07-03 18:50:00,
2013-07-03 11:56:00,72.1,55.1,29.10,WSW,248,5.8,5.8,55,0.00,CLR,OVC,0.00,WeatherDisplay:10.37,2013-07-03 18:56:00,
2013-07-03 12:01:00,73.0,56.4,29.10,West,270,4.6,4.6,56,0.00,CLR,OVC,0.00,WeatherDisplay:10.37,2013-07-03 19:01:00,
2013-07-03 12:06:00,73.8,55.6,29.10,NNW,338,4.6,4.6,53,0.00,CLR,OVC,0.00,WeatherDisplay:10.37,2013-07-03 19:06:00,
2013-07-03 12:12:00,74.1,56.9,29.10,WSW,248,2.3,2.3,55,0.00,CLR,OVC,0.00,WeatherDisplay:10.37,2013-07-03 19:12:00,
2013-07-03 12:17:00,74.8,55.5,29.10,SSE,158,5.2,5.2,51,0.00,CLR,OVC,0.00,WeatherDisplay:10.37,2013-07-03 19:17:00,
2013-07-03 12:22:00,74.7,56.4,29.10,West,270,3.5,3.5,53,0.00,CLR,OVC,0.00,WeatherDisplay:10.37,2013-07-03 19:22:00,
2013-07-03 12:28:00,75.2,57.4,29.10,South,180,2.3,2.3,54,0.00,CLR,OVC,0.00,WeatherDisplay:10.37,2013-07-03 19:28:00,
2013-07-03 12:33:00,76.5,58.1,29.10,NNE,22,2.3,2.3,53,0.00,CLR,OVC,0.00,WeatherDisplay:10.37,2013-07-03 19:33:00,
2013-07-03 12:38:00,76.6,56.6,29.10,West,270,3.5,3.5,50,0.00,CLR,OVC,0.00,WeatherDisplay:10.37,2013-07-03 19:38:00,
2013-07-03 12:44:00,76.1,56.1,29.10,North,0,4.6,4.6,50,0.00,CLR,OVC,0.00,WeatherDisplay:10.37,2013-07-03 19:44:00,
2013-07-03 12:49:00,75.7,55.8,29.10,NW,315,4.7,4.7,50,0.00,CLR,OVC,0.00,WeatherDisplay:10.37,2013-07-03 19:49:00,
2013-07-03 12:54:00,76.1,57.7,29.10,SSE,158,3.5,3.5,53,0.00,CLR,OVC,0.00,WeatherDisplay:10.37,2013-07-03 19:54:00,
2013-07-03 12:59:00,76.8,58.9,29.10,West,270,2.4,2.4,54,0.00,CLR,OVC,0.00,WeatherDisplay:10.37,2013-07-03 19:59:00,
2013-07-03 13:04:00,77.4,57.8,29.10,SW,225,2.3,2.3,51,0.00,CLR,OVC,0.00,WeatherDisplay:10.37,2013-07-03 20:04:00,
2013-07-03 13:09:00,77.5,57.4,29.10,SSW,202,5.8,5.8,50,0.00,CLR,OVC,0.00,WeatherDisplay:10.37,2013-07-03 20:09:00,
2013-07-03 13:15:00,77.4,56.7,29.10,SSW,202,5.8,5.8,49,0.00,CLR,OVC,0.00,WeatherDisplay:10.37,2013-07-03 20:15:00,
2013-07-03 13:20:00,76.6,56.6,29.09,WSW,248,5.2,5.2,50,0.00,CLR,OVC,0.00,WeatherDisplay:10.37,2013-07-03 20:20:00,
2013-07-03 13:26:00,76.3,57.4,29.10,WSW,248,2.9,2.9,52,0.00,CLR,OVC,0.00,WeatherDisplay:10.37,2013-07-03 20:26:00,
2013-07-03 13:31:00,77.0,58.6,29.10,WSW,248,2.3,2.3,53,0.00,CLR,OVC,0.00,WeatherDisplay:10.37,2013-07-03 20:31:00,
2013-07-03 13:36:00,77.7,58.1,29.10,SSW,202,3.5,3.5,51,0.00,CLR,OVC,0.00,WeatherDisplay:10.37,2013-07-03 20:36:00,
2013-07-03 13:41:00,78.3,59.2,29.09,West,270,2.4,2.4,52,0.00,CLR,OVC,0.00,WeatherDisplay:10.37,2013-07-03 20:41:00,
2013-07-03 13:47:00,78.4,57.7,29.09,NW,315,3.6,3.6,49,0.00,CLR,OVC,0.00,WeatherDisplay:10.37,2013-07-03 20:47:00,
2013-07-03 13:52:00,78.1,57.9,29.10,West,270,3.5,3.5,50,0.00,CLR,OVC,0.00,WeatherDisplay:10.37,2013-07-03 20:52:00,
2013-07-03 13:57:00,77.5,56.9,29.10,South,180,4.6,4.6,49,0.00,CLR,OVC,0.00,WeatherDisplay:10.37,2013-07-03 20:57:00,
2013-07-03 14:03:00,77.4,56.7,29.09,West,270,8.1,8.1,49,0.00,CLR,OVC,0.00,WeatherDisplay:10.37,2013-07-03 21:03:00,
2013-07-03 14:08:00,77.5,58.0,29.09,SSW,202,4.6,4.6,51,0.00,CLR,OVC,0.00,WeatherDisplay:10.37,2013-07-03 21:08:00,
2013-07-03 14:14:00,77.7,57.6,29.08,West,270,5.8,5.8,50,0.00,CLR,OVC,0.00,WeatherDisplay:10.37,2013-07-03 21:14:00,
2013-07-03 14:19:00,77.7,57.0,29.08,West,270,5.8,5.8,49,0.00,CLR,OVC,0.00,WeatherDisplay:10.37,2013-07-03 21:19:00,
2013-07-03 14:24:00,78.1,57.9,29.09,West,270,4.6,4.6,50,0.00,CLR,OVC,0.00,WeatherDisplay:10.37,2013-07-03 21:24:00,
2013-07-03 14:30:00,78.6,57.9,29.09,SE,135,3.5,3.5,49,0.00,CLR,OVC,0.00,WeatherDisplay:10.37,2013-07-03 21:30:00,
2013-07-03 14:35:00,79.2,57.8,29.08,SW,225,4.6,4.6,48,0.00,CLR,OVC,0.00,WeatherDisplay:10.37,2013-07-03 21:35:00,
2013-07-03 14:40:00,79.2,57.8,29.08,East,90,4.6,4.6,48,0.00,CLR,OVC,0.00,WeatherDisplay:10.37,2013-07-03 21:40:00,
2013-07-03 14:45:00,79.3,57.4,29.08,West,270,5.8,5.8,47,0.00,CLR,OVC,0.00,WeatherDisplay:10.37,2013-07-03 21:45:00,
2013-07-03 14:50:00,78.4,57.7,29.08,SW,225,2.6,2.6,49,0.00,CLR,OVC,0.00,WeatherDisplay:10.37,2013-07-03 21:50:00,
2013-07-03 14:55:00,79.5,56.9,29.08,West,270,5.2,5.2,46,0.00,CLR,OVC,0.00,WeatherDisplay:10.37,2013-07-03 21:55:00,
2013-07-03 15:01:00,79.3,57.9,29.08,WSW,248,2.6,2.6,48,0.00,CLR,OVC,0.00,WeatherDisplay:10.37,2013-07-03 22:01:00,
2013-07-03 15:06:00,79.7,57.1,29.08,SW,225,2.4,2.4,46,0.00,CLR,OVC,0.00,WeatherDisplay:10.37,2013-07-03 22:06:00,
2013-07-03 15:11:00,80.6,58.5,29.07,WSW,248,2.3,2.3,47,0.00,CLR,OVC,0.00,WeatherDisplay:10.37,2013-07-03 22:11:00,
2013-07-03 15:16:00,81.7,58.3,29.07,ENE,68,3.5,3.5,45,0.00,CLR,OVC,0.00,WeatherDisplay:10.37,2013-07-03 22:16:00,
2013-07-03 15:22:00,81.7,58.3,29.07,ESE,112,3.5,3.5,45,0.00,CLR,OVC,0.00,WeatherDisplay:10.37,2013-07-03 22:22:00,
2013-07-03 15:27:00,81.9,58.4,29.07,WSW,248,4.6,4.6,45,0.00,CLR,OVC,0.00,WeatherDisplay:10.37,2013-07-03 22:27:00,
2013-07-03 15:32:00,82.4,58.9,29.07,NW,315,2.3,2.4,45,0.00,CLR,OVC,0.00,WeatherDisplay:10.37,2013-07-03 22:32:00,
2013-07-03 15:37:00,82.6,57.8,29.07,South,180,3.5,3.5,43,0.00,CLR,OVC,0.00,WeatherDisplay:10.37,2013-07-03 22:37:00,
2013-07-03 15:43:00,82.8,59.3,29.07,SW,225,3.5,3.5,45,0.00,CLR,OVC,0.00,WeatherDisplay:10.37,2013-07-03 22:43:00,
2013-07-03 15:48:00,82.6,58.5,29.07,SSW,202,3.5,3.5,44,0.00,CLR,OVC,0.00,WeatherDisplay:10.37,2013-07-03 22:48:00,
2013-07-03 15:54:00,83.8,60.2,29.06,WSW,248,2.9,2.9,45,0.00,CLR,OVC,0.00,WeatherDisplay:10.37,2013-07-03 22:54:00,
2013-07-03 15:59:00,85.1,60.7,29.06,SSE,158,2.3,2.3,44,0.00,CLR,OVC,0.00,WeatherDisplay:10.37,2013-07-03 22:59:00,
2013-07-03 16:04:00,86.0,60.9,29.06,SSW,202,3.5,3.5,43,0.00,CLR,OVC,0.00,WeatherDisplay:10.37,2013-07-03 23:04:00,
2013-07-03 16:09:00,86.2,60.4,29.05,WSW,248,4.6,4.6,42,0.00,CLR,OVC,0.00,WeatherDisplay:10.37,2013-07-03 23:09:00,
2013-07-03 16:14:00,86.0,60.2,29.05,WSW,248,2.4,2.4,42,0.00,CLR,OVC,0.00,WeatherDisplay:10.37,2013-07-03 23:14:00,
2013-07-03 16:19:00,85.3,59.6,29.05,WSW,248,4.6,4.6,42,0.00,CLR,OVC,0.00,WeatherDisplay:10.37,2013-07-03 23:19:00,
2013-07-03 16:25:00,84.9,58.6,29.05,SW,225,5.8,5.8,41,0.00,CLR,OVC,0.00,WeatherDisplay:10.37,2013-07-03 23:25:00,
2013-07-03 16:31:00,84.6,58.3,29.05,WSW,248,4.6,4.6,41,0.00,CLR,OVC,0.00,WeatherDisplay:10.37,2013-07-03 23:31:00,
2013-07-03 16:36:00,85.3,59.6,29.05,SSW,202,2.3,2.3,42,0.00,CLR,OVC,0.00,WeatherDisplay:10.37,2013-07-03 23:36:00,
2013-07-03 16:42:00,86.4,60.6,29.05,SSW,202,2.4,2.4,42,0.00,CLR,OVC,0.00,WeatherDisplay:10.37,2013-07-03 23:42:00,
2013-07-03 16:47:00,86.9,60.4,29.05,SSE,158,3.3,3.3,41,0.00,CLR,OVC,0.00,WeatherDisplay:10.37,2013-07-03 23:47:00,
2013-07-03 16:52:00,87.4,60.8,29.04,ESE,112,2.4,2.4,41,0.00,CLR,OVC,0.00,WeatherDisplay:10.37,2013-07-03 23:52:00,
2013-07-03 16:57:00,88.2,61.5,29.04,WSW,248,3.5,3.5,41,0.00,CLR,OVC,0.00,WeatherDisplay:10.37,2013-07-03 23:57:00,
2013-07-03 17:02:00,88.3,61.0,29.04,South,180,2.3,2.3,40,0.00,CLR,OVC,0.00,WeatherDisplay:10.37,2013-07-04 00:02:00,
2013-07-03 17:08:00,88.5,61.1,29.04,WSW,248,2.6,2.6,40,0.00,CLR,OVC,0.00,WeatherDisplay:10.37,2013-07-04 00:08:00,
2013-07-03 17:13:00,88.3,61.0,29.04,SW,225,2.9,2.9,40,0.00,CLR,OVC,0.00,WeatherDisplay:10.37,2013-07-04 00:13:00,
2013-07-03 17:18:00,89.2,61.8,29.04,SW,225,2.4,2.4,40,0.00,CLR,OVC,0.00,WeatherDisplay:10.37,2013-07-04 00:18:00,
2013-07-03 17:23:00,89.1,60.9,29.04,SSW,202,2.3,2.3,39,0.00,CLR,OVC,0.00,WeatherDisplay:10.37,2013-07-04 00:23:00,
2013-07-03 17:28:00,88.2,60.1,29.04,WNW,292,2.9,2.9,39,0.00,CLR,OVC,0.00,WeatherDisplay:10.37,2013-07-04 00:28:00,
2013-07-03 17:34:00,87.6,59.6,29.04,SSW,202,2.3,2.3,39,0.00,CLR,OVC,0.00,WeatherDisplay:10.37,2013-07-04 00:34:00,
2013-07-03 17:39:00,88.2,59.4,29.04,ENE,68,3.5,3.5,38,0.00,CLR,OVC,0.00,WeatherDisplay:10.37,2013-07-04 00:39:00,
2013-07-03 17:44:00,88.2,60.1,29.04,WNW,292,4.6,4.6,39,0.00,CLR,OVC,0.00,WeatherDisplay:10.37,2013-07-04 00:44:00,
2013-07-03 17:50:00,87.6,59.6,29.03,SE,135,2.4,2.4,39,0.00,CLR,OVC,0.00,WeatherDisplay:10.37,2013-07-04 00:50:00,
2013-07-03 17:55:00,88.2,59.4,29.04,South,180,4.6,4.6,38,0.00,CLR,OVC,0.00,WeatherDisplay:10.37,2013-07-04 00:55:00,
2013-07-03 18:00:00,88.2,57.8,29.03,WSW,248,2.3,2.3,36,0.00,CLR,OVC,0.00,WeatherDisplay:10.37,2013-07-04 01:00:00,
2013-07-03 18:06:00,87.6,57.4,29.03,WNW,292,3.5,3.5,36,0.00,CLR,OVC,0.00,WeatherDisplay:10.37,2013-07-04 01:06:00,
2013-07-03 18:12:00,86.5,57.2,29.03,South,180,2.3,2.3,37,0.00,CLR,OVC,0.00,WeatherDisplay:10.37,2013-07-04 01:12:00,
2013-07-03 18:17:00,85.6,54.8,29.03,SW,225,2.3,2.3,35,0.00,CLR,OVC,0.00,WeatherDisplay:10.37,2013-07-04 01:17:00,
2013-07-03 18:22:00,85.5,56.2,29.03,SSE,158,2.3,2.3,37,0.00,CLR,OVC,0.00,WeatherDisplay:10.37,2013-07-04 01:22:00,
2013-07-03 18:27:00,85.8,55.0,29.03,SW,225,2.3,2.3,35,0.00,CLR,OVC,0.00,WeatherDisplay:10.37,2013-07-04 01:27:00,
2013-07-03 18:32:00,85.1,54.4,29.03,WSW,248,3.8,3.8,35,0.00,CLR,OVC,0.00,WeatherDisplay:10.37,2013-07-04 01:32:00,
2013-07-03 18:37:00,83.8,54.8,29.03,WNW,292,4.6,4.6,37,0.00,CLR,OVC,0.00,WeatherDisplay:10.37,2013-07-04 01:37:00,
2013-07-03 18:42:00,84.0,54.9,29.03,WSW,248,3.5,3.5,37,0.00,CLR,OVC,0.00,WeatherDisplay:10.37,2013-07-04 01:42:00,
2013-07-03 18:48:00,83.3,54.3,29.03,East,90,5.8,5.8,37,0.00,CLR,OVC,0.00,WeatherDisplay:10.37,2013-07-04 01:48:00,
2013-07-03 18:53:00,82.9,54.0,29.03,SW,225,3.5,3.5,37,0.00,CLR,OVC,0.00,WeatherDisplay:10.37,2013-07-04 01:53:00,
2013-07-03 18:58:00,82.8,53.1,29.04,WNW,292,2.6,2.6,36,0.00,CLR,OVC,0.00,WeatherDisplay:10.37,2013-07-04 01:58:00,
2013-07-03 19:03:00,82.9,53.2,29.04,East,90,3.5,3.5,36,0.00,CLR,OVC,0.00,WeatherDisplay:10.37,2013-07-04 02:03:00,
2013-07-03 19:08:00,81.7,52.1,29.04,South,180,3.5,3.5,36,0.00,CLR,OVC,0.00,WeatherDisplay:10.37,2013-07-04 02:08:00,
2013-07-03 19:13:00,81.1,53.1,29.04,SW,225,3.8,3.8,38,0.00,CLR,OVC,0.00,WeatherDisplay:10.37,2013-07-04 02:13:00,
2013-07-03 19:19:00,80.6,52.6,29.04,SSW,202,2.3,2.3,38,0.00,CLR,OVC,0.00,WeatherDisplay:10.37,2013-07-04 02:19:00,
2013-07-03 19:24:00,79.2,51.4,29.04,SSW,202,4.6,4.6,38,0.00,CLR,OVC,0.00,WeatherDisplay:10.37,2013-07-04 02:24:00,
2013-07-03 19:29:00,79.0,51.9,29.04,NW,315,4.6,4.6,39,0.00,CLR,OVC,0.00,WeatherDisplay:10.37,2013-07-04 02:29:00,
2013-07-03 19:34:00,78.4,51.4,29.04,South,180,3.6,3.6,39,0.00,CLR,OVC,0.00,WeatherDisplay:10.37,2013-07-04 02:34:00,
2013-07-03 19:40:00,77.0,50.8,29.04,South,180,4.6,4.6,40,0.00,CLR,OVC,0.00,WeatherDisplay:10.37,2013-07-04 02:40:00,
2013-07-03 19:45:00,76.6,51.2,29.04,SE,135,3.5,3.5,41,0.00,CLR,OVC,0.00,WeatherDisplay:10.37,2013-07-04 02:45:00,
2013-07-03 19:50:00,76.5,51.0,29.04,NW,315,4.6,4.6,41,0.00,CLR,OVC,0.00,WeatherDisplay:10.37,2013-07-04 02:50:00,
2013-07-03 19:56:00,75.7,51.0,29.05,SW,225,3.5,3.5,42,0.00,CLR,OVC,0.00,WeatherDisplay:10.37,2013-07-04 02:56:00,
2013-07-03 20:01:00,75.6,51.5,29.05,SE,135,2.3,2.3,43,0.00,CLR,OVC,0.00,WeatherDisplay:10.37,2013-07-04 03:01:00,
2013-07-03 20:06:00,75.0,51.0,29.05,SE,135,4.6,4.6,43,0.00,CLR,OVC,0.00,WeatherDisplay:10.37,2013-07-04 03:06:00,
2013-07-03 20:12:00,73.4,50.8,29.05,NW,315,3.5,3.5,45,0.00,CLR,OVC,0.00,WeatherDisplay:10.37,2013-07-04 03:12:00,
2013-07-03 20:17:00,72.5,50.5,29.05,NW,315,3.5,3.5,46,0.00,CLR,OVC,0.00,WeatherDisplay:10.37,2013-07-04 03:17:00,
2013-07-03 20:22:00,71.8,50.5,29.05,SSW,202,4.0,4.0,47,0.00,CLR,OVC,0.00,WeatherDisplay:10.37,2013-07-04 03:22:00,
2013-07-03 20:28:00,70.2,50.1,29.05,SSE,158,3.5,3.5,49,0.00,CLR,OVC,0.00,WeatherDisplay:10.37,2013-07-04 03:28:00,
2013-07-03 20:33:00,68.4,49.0,29.05,SSW,202,3.5,3.5,50,0.00,CLR,OVC,0.00,WeatherDisplay:10.37,2013-07-04 03:33:00,
2013-07-03 20:38:00,67.6,48.9,29.05,SE,135,2.3,2.3,51,0.00,CLR,OVC,0.00,WeatherDisplay:10.37,2013-07-04 03:38:00,
2013-07-03 20:43:00,66.9,48.7,29.05,ESE,112,2.3,2.3,52,0.00,CLR,OVC,0.00,WeatherDisplay:10.37,2013-07-04 03:43:00,
2013-07-03 20:48:00,65.1,48.5,29.05,NW,315,4.6,4.6,55,0.00,CLR,OVC,0.00,WeatherDisplay:10.37,2013-07-04 03:48:00,
2013-07-03 20:54:00,63.7,47.7,29.05,SE,135,2.3,2.3,56,0.00,CLR,OVC,0.00,WeatherDisplay:10.37,2013-07-04 03:54:00,
2013-07-03 20:59:00,63.0,48.4,29.05,NNW,338,4.6,4.6,59,0.00,CLR,OVC,0.00,WeatherDisplay:10.37,2013-07-04 03:59:00,
2013-07-03 21:01:00,62.8,48.2,29.05,ESE,112,2.2,2.2,59,0.00,CLR,OVC,0.00,WeatherDisplay:10.37,2013-07-04 04:01:00,
2013-07-03 21:06:00,61.9,48.3,29.05,SW,225,3.5,3.5,61,0.00,CLR,OVC,0.00,WeatherDisplay:10.37,2013-07-04 04:06:00,
2013-07-03 21:11:00,61.3,48.6,29.06,NNE,22,3.5,3.5,63,0.00,CLR,OVC,0.00,WeatherDisplay:10.37,2013-07-04 04:11:00,
2013-07-03 21:16:00,60.6,48.8,29.06,SE,135,3.5,3.5,65,0.00,CLR,OVC,0.00,WeatherDisplay:10.37,2013-07-04 04:16:00,
2013-07-03 21:21:00,60.1,48.7,29.06,NNE,22,5.9,5.9,66,0.00,CLR,OVC,0.00,WeatherDisplay:10.37,2013-07-04 04:21:00,
2013-07-03 21:26:00,59.7,47.9,29.06,WSW,248,3.8,3.8,65,0.00,CLR,OVC,0.00,WeatherDisplay:10.37,2013-07-04 04:26:00,
2013-07-03 21:31:00,59.4,47.6,29.06,SSE,158,1.2,1.2,65,0.00,CLR,OVC,0.00,WeatherDisplay:10.37,2013-07-04 04:31:00,
2013-07-03 21:36:00,58.8,48.3,29.06,NW,315,3.3,3.3,68,0.00,CLR,OVC,0.00,WeatherDisplay:10.37,2013-07-04 04:36:00,
2013-07-03 21:41:00,58.5,48.3,29.06,NNW,338,2.9,2.9,69,0.00,CLR,OVC,0.00,WeatherDisplay:10.37,2013-07-04 04:41:00,
2013-07-03 21:46:00,58.1,48.0,29.06,WSW,248,2.3,2.3,69,0.00,CLR,OVC,0.00,WeatherDisplay:10.37,2013-07-04 04:46:00,
2013-07-03 21:51:00,57.7,48.0,29.07,South,180,2.3,2.3,70,0.00,CLR,OVC,0.00,WeatherDisplay:10.37,2013-07-04 04:51:00,
2013-07-03 21:56:00,57.6,48.6,29.07,ESE,112,3.3,3.3,72,0.00,CLR,OVC,0.00,WeatherDisplay:10.37,2013-07-04 04:56:00,
2013-07-03 22:01:00,57.2,48.3,29.07,SE,135,2.3,2.3,72,0.00,CLR,OVC,0.00,WeatherDisplay:10.37,2013-07-04 05:01:00,
2013-07-03 22:06:00,56.8,48.3,29.07,West,270,2.3,2.3,73,0.00,CLR,OVC,0.00,WeatherDisplay:10.37,2013-07-04 05:06:00,
2013-07-03 22:11:00,56.5,48.3,29.07,WNW,292,3.5,3.5,74,0.00,CLR,OVC,0.00,WeatherDisplay:10.37,2013-07-04 05:11:00,
2013-07-03 22:16:00,56.3,48.5,29.08,ESE,112,2.3,2.3,75,0.00,CLR,OVC,0.00,WeatherDisplay:10.37,2013-07-04 05:16:00,
2013-07-03 22:21:00,55.9,47.8,29.08,WNW,292,2.3,0.0,74,0.00,CLR,OVC,0.00,WeatherDisplay:10.37,2013-07-04 05:21:00,
2013-07-03 22:26:00,55.8,48.3,29.08,South,180,2.3,2.3,76,0.00,CLR,OVC,0.00,WeatherDisplay:10.37,2013-07-04 05:26:00,
2013-07-03 22:31:00,55.6,48.5,29.08,WSW,248,4.6,4.6,77,0.00,CLR,OVC,0.00,WeatherDisplay:10.37,2013-07-04 05:31:00,
2013-07-03 22:36:00,55.4,48.7,29.08,WSW,248,4.9,4.9,78,0.00,CLR,OVC,0.00,WeatherDisplay:10.37,2013-07-04 05:36:00,
2013-07-03 22:41:00,55.2,48.5,29.08,NW,315,2.3,2.3,78,0.00,CLR,OVC,0.00,WeatherDisplay:10.37,2013-07-04 05:41:00,
2013-07-03 22:46:00,55.0,48.3,29.08,SSW,202,3.5,3.5,78,0.00,CLR,OVC,0.00,WeatherDisplay:10.37,2013-07-04 05:46:00,
2013-07-03 22:51:00,54.9,48.1,29.09,WSW,248,2.3,2.3,78,0.00,CLR,OVC,0.00,WeatherDisplay:10.37,2013-07-04 05:51:00,
2013-07-03 22:56:00,54.7,48.3,29.09,West,270,2.3,2.3,79,0.00,CLR,OVC,0.00,WeatherDisplay:10.37,2013-07-04 05:56:00,
2013-07-03 23:01:00,54.5,48.1,29.09,SSW,202,3.5,3.5,79,0.00,CLR,OVC,0.00,WeatherDisplay:10.37,2013-07-04 06:01:00,
2013-07-03 23:06:00,54.3,47.6,29.08,SSW,202,1.2,1.2,78,0.00,CLR,OVC,0.00,WeatherDisplay:10.37,2013-07-04 06:06:00,
2013-07-03 23:11:00,54.1,47.8,29.08,South,180,3.5,3.5,79,0.00,CLR,OVC,0.00,WeatherDisplay:10.37,2013-07-04 06:11:00,
2013-07-03 23:16:00,54.0,47.3,29.08,SSE,158,1.2,1.2,78,0.00,CLR,OVC,0.00,WeatherDisplay:10.37,2013-07-04 06:16:00,
2013-07-03 23:21:00,54.0,47.6,29.08,South,180,2.3,2.3,79,0.00,CLR,OVC,0.00,WeatherDisplay:10.37,2013-07-04 06:21:00,
2013-07-03 23:26:00,53.8,48.1,29.08,East,90,2.4,2.4,81,0.00,CLR,OVC,0.00,WeatherDisplay:10.37,2013-07-04 06:26:00,
2013-07-03 23:31:00,53.8,48.1,29.08,NNW,338,2.4,2.4,81,0.00,CLR,OVC,0.00,WeatherDisplay:10.37,2013-07-04 06:31:00,
2013-07-03 23:36:00,53.6,47.6,29.08,South,180,2.3,2.3,80,0.00,CLR,OVC,0.00,WeatherDisplay:10.37,2013-07-04 06:36:00,
2013-07-03 23:41:00,53.6,47.9,29.08,NNE,22,1.2,1.2,81,0.00,CLR,OVC,0.00,WeatherDisplay:10.37,2013-07-04 06:41:00,
2013-07-03 23:46:00,53.6,48.2,29.08,South,180,2.3,2.3,82,0.00,CLR,OVC,0.00,WeatherDisplay:10.37,2013-07-04 06:46:00,
2013-07-03 23:51:00,53.4,47.7,29.07,SE,135,2.3,2.3,81,0.00,CLR,OVC,0.00,WeatherDisplay:10.37,2013-07-04 06:51:00,
2013-07-03 23:56:00,53.4,48.1,29.07,SW,225,3.5,3.5,82,0.00,CLR,OVC,0.00,WeatherDisplay:10.37,2013-07-04 06:56:00,